Terminal Aerodrome Forecast
Issued by NWS Pueblo, CO

Home | Current Version | Previous Version | Text Only | Print | Product List | Glossary On
Versions: 1 2 3 4 5 6 7 8 9 10 11 12 13 14 15 16 17 18 19 20 21 22 23 24 25 26 27 28 29 30 31 32 33 34 35 36 37 38 39 40 41 42 43 44 45 46 47 48 49 50
000
FTUS45 KPUB 131126
TAFPUB
TAF
KPUB 131126Z 1312/1412 VRB06KT P6SM SCT100
     FM131800 12012KT P6SM SCT070 BKN120
     FM132200 12012KT P6SM VCTS BKN070CB OVC120
     FM140300 VRB06KT P6SM VCSH BKN100
     FM140700 VRB06KT P6SM FEW200=

USA.gov is the U.S. government's official web portal to all federal, state and local government web resources and services.